createdAt,value
2022-11-06T00:01:42.617Z,100600
2022-11-06T00:07:33.357Z,100602
2022-11-06T00:13:24.763Z,100600
2022-11-06T00:19:16.792Z,100598
2022-11-06T00:25:08.677Z,100586
2022-11-06T00:31:01.199Z,100592
2022-11-06T00:36:54.636Z,100587
2022-11-06T00:42:44.981Z,100598
2022-11-06T00:48:35.729Z,100580
2022-11-06T00:54:26.853Z,100591
2022-11-06T01:00:17.613Z,100577
2022-11-06T01:06:09.240Z,100583
2022-11-06T01:12:16.443Z,100574
2022-11-06T01:18:07.266Z,100586
2022-11-06T01:24:00.257Z,100585
2022-11-06T01:29:49.150Z,100573
2022-11-06T01:35:42.022Z,100569
2022-11-06T01:41:35.610Z,100557
2022-11-06T01:47:26.408Z,100555
2022-11-06T01:53:21.746Z,100548
2022-11-06T01:59:12.582Z,100543
2022-11-06T02:05:05.756Z,100532
2022-11-06T02:10:56.897Z,100540
2022-11-06T02:16:48.898Z,100542
2022-11-06T02:22:39.358Z,100534
2022-11-06T02:28:30.210Z,100540
2022-11-06T02:34:20.765Z,100547
2022-11-06T02:40:12.021Z,100550
2022-11-06T02:46:02.089Z,100537
2022-11-06T02:51:52.501Z,100533
2022-11-06T02:57:43.854Z,100544
2022-11-06T03:03:36.908Z,100522
2022-11-06T03:09:28.075Z,100517
2022-11-06T03:15:19.015Z,100517
2022-11-06T03:21:11.236Z,100503
2022-11-06T03:27:03.023Z,100494
2022-11-06T03:32:54.952Z,100488
2022-11-06T03:38:45.835Z,100483
2022-11-06T03:44:41.342Z,100510
2022-11-06T03:50:32.030Z,100513
2022-11-06T03:56:22.810Z,100538
2022-11-06T04:02:14.493Z,100535
2022-11-06T04:08:05.731Z,100521
2022-11-06T04:13:59.555Z,100539
2022-11-06T04:19:50.556Z,100539
2022-11-06T04:25:44.131Z,100519
2022-11-06T04:31:35.325Z,100525
2022-11-06T04:37:25.957Z,100514
2022-11-06T04:43:17.156Z,100515
2022-11-06T04:49:07.387Z,100511
2022-11-06T04:54:57.067Z,100485
2022-11-06T05:00:46.694Z,100469
2022-11-06T05:06:38.838Z,100460
2022-11-06T05:12:30.006Z,100450
2022-11-06T05:18:23.387Z,100445
2022-11-06T05:24:18.038Z,100439
2022-11-06T05:30:09.061Z,100432
2022-11-06T05:36:00.957Z,100407
2022-11-06T05:41:52.126Z,100396
2022-11-06T05:47:44.215Z,100401
2022-11-06T05:53:39.061Z,100395
2022-11-06T05:59:30.524Z,100355
2022-11-06T06:05:21.294Z,100357
2022-11-06T06:11:13.817Z,100357
2022-11-06T06:17:05.338Z,100350
2022-11-06T06:22:56.817Z,100347
2022-11-06T06:28:48.911Z,100335
2022-11-06T06:35:00.024Z,100317
2022-11-06T06:54:13.830Z,100351
2022-11-06T07:00:10.004Z,100347
2022-11-06T07:06:05.071Z,100352
2022-11-06T07:18:07.523Z,100357
2022-11-06T07:24:14.792Z,100357
2022-11-06T07:30:25.429Z,100350
2022-11-06T07:36:32.968Z,100345
2022-11-06T07:42:32.126Z,100343
2022-11-06T07:48:34.465Z,100346
2022-11-06T07:54:39.676Z,100349
2022-11-06T08:01:07.423Z,100361
2022-11-06T08:13:41.979Z,100347
2022-11-06T08:33:03.589Z,100299
2022-11-06T08:39:27.430Z,100303
2022-11-06T08:45:37.264Z,100293
2022-11-06T09:03:45.044Z,100299
2022-11-06T09:09:38.602Z,100277
2022-11-06T09:15:33.375Z,100272
2022-11-06T09:21:42.991Z,100260
2022-11-06T09:27:41.850Z,100267
2022-11-06T09:33:38.805Z,100265
2022-11-06T09:39:39.827Z,100252
2022-11-06T09:45:44.946Z,100242
2022-11-06T09:52:09.890Z,100244
2022-11-06T09:58:04.561Z,100237
2022-11-06T10:03:57.367Z,100248
2022-11-06T10:09:51.574Z,100243
2022-11-06T10:15:44.000Z,100227
2022-11-06T10:21:34.259Z,100230
2022-11-06T10:27:25.492Z,100218
2022-11-06T10:33:23.915Z,100193
2022-11-06T10:51:54.481Z,100154
2022-11-06T10:57:45.815Z,100143
2022-11-06T11:04:45.808Z,100128
2022-11-06T11:10:35.560Z,100107
2022-11-06T11:16:26.814Z,100118
2022-11-06T11:22:18.070Z,100100
2022-11-06T11:28:08.547Z,100083
2022-11-06T11:34:01.164Z,100073
2022-11-06T11:39:52.100Z,100072
2022-11-06T11:45:43.343Z,100059
2022-11-06T11:51:32.217Z,100045
2022-11-06T11:57:23.327Z,100025
2022-11-06T12:03:13.583Z,100004
2022-11-06T12:09:05.534Z,100000
2022-11-06T12:14:57.194Z,99989
2022-11-06T12:21:05.791Z,99984
2022-11-06T12:26:56.847Z,99953
2022-11-06T12:32:49.884Z,99941
2022-11-06T12:38:50.617Z,99940
2022-11-06T12:51:01.830Z,99929
2022-11-06T12:56:53.204Z,99893
2022-11-06T13:02:46.644Z,99866
2022-11-06T13:09:00.992Z,99878
2022-11-06T13:14:50.743Z,99903
2022-11-06T13:20:48.984Z,99907
2022-11-06T13:26:40.790Z,99890
2022-11-06T13:32:33.092Z,99889
2022-11-06T13:38:23.242Z,99895
2022-11-06T13:44:30.435Z,99871
2022-11-06T13:50:25.011Z,99861
2022-11-06T13:56:18.929Z,99849
2022-11-06T14:02:10.474Z,99843
2022-11-06T14:08:03.695Z,99831
2022-11-06T14:13:54.483Z,99836
2022-11-06T14:19:56.755Z,99855
2022-11-06T14:25:47.589Z,99848
2022-11-06T14:31:37.641Z,99835
2022-11-06T14:37:33.925Z,99837
2022-11-06T14:43:22.993Z,99828
2022-11-06T14:49:12.952Z,99821
2022-11-06T14:55:07.787Z,99828
2022-11-06T15:01:00.316Z,99846
2022-11-06T15:06:50.668Z,99857
2022-11-06T15:12:41.404Z,99871
2022-11-06T15:18:31.539Z,99871
2022-11-06T15:24:23.081Z,99855
2022-11-06T15:30:12.974Z,99853
2022-11-06T15:36:04.615Z,99842
2022-11-06T15:41:56.028Z,99835
2022-11-06T15:47:52.500Z,99855
2022-11-06T15:53:55.740Z,99849
2022-11-06T15:59:46.469Z,99851
2022-11-06T16:05:49.017Z,99842
2022-11-06T16:11:38.122Z,99836
2022-11-06T16:17:29.370Z,99833
2022-11-06T16:23:24.315Z,99824
2022-11-06T16:35:50.023Z,99767
2022-11-06T16:42:01.564Z,99760
2022-11-06T16:53:53.442Z,99750
2022-11-06T16:59:48.094Z,99750
2022-11-06T17:05:37.262Z,99722
2022-11-06T17:11:26.225Z,99778
2022-11-06T17:17:26.201Z,99779
2022-11-06T17:23:53.597Z,99766
2022-11-06T17:30:11.869Z,99789
2022-11-06T17:36:31.112Z,99789
2022-11-06T17:42:23.379Z,99761
2022-11-06T17:48:17.679Z,99767
2022-11-06T17:54:09.099Z,99761
2022-11-06T18:00:00.529Z,99756
2022-11-06T18:05:51.545Z,99751
2022-11-06T18:11:54.760Z,99754
2022-11-06T18:17:49.360Z,99739
2022-11-06T18:23:40.810Z,99725
2022-11-06T18:29:32.010Z,99721
2022-11-06T18:35:22.725Z,99712
2022-11-06T18:41:19.861Z,99719
2022-11-06T18:47:15.589Z,99733
2022-11-06T18:53:04.658Z,99727
2022-11-06T18:58:55.313Z,99718
2022-11-06T19:04:43.979Z,99732
2022-11-06T19:10:46.666Z,99727
2022-11-06T19:17:12.600Z,99740
2022-11-06T19:23:37.113Z,99745
2022-11-06T19:36:24.327Z,99751
2022-11-06T20:03:07.474Z,99757
2022-11-06T20:09:33.237Z,99752
2022-11-06T20:34:29.539Z,99774
2022-11-06T21:00:25.760Z,99774
2022-11-06T21:08:09.312Z,99790
2022-11-06T21:14:33.855Z,99790
2022-11-06T21:21:02.079Z,99820
2022-11-06T21:27:36.803Z,99830
2022-11-06T21:33:56.365Z,99854
2022-11-06T21:40:06.991Z,99868
2022-11-06T21:46:07.021Z,99867
2022-11-06T21:52:05.603Z,99879
2022-11-06T21:58:12.185Z,99891
2022-11-06T22:04:15.432Z,99907
2022-11-06T22:10:11.432Z,99938
2022-11-06T22:16:10.817Z,99935
2022-11-06T22:22:05.327Z,99947
2022-11-06T22:27:56.483Z,99951
2022-11-06T22:33:56.146Z,99946
2022-11-06T22:39:47.637Z,99943
2022-11-06T22:46:03.261Z,99940
2022-11-06T22:51:56.045Z,99947
2022-11-06T22:57:47.526Z,99940
2022-11-06T23:03:39.515Z,99940
2022-11-06T23:09:31.474Z,99937
2022-11-06T23:15:24.061Z,99944
2022-11-06T23:21:15.730Z,99945
2022-11-06T23:27:07.585Z,99960
2022-11-06T23:32:59.840Z,99965
2022-11-06T23:38:53.854Z,99961
2022-11-06T23:44:46.823Z,99969
2022-11-06T23:50:40.065Z,99977
2022-11-06T23:56:32.935Z,99979
